Time;durP1;ratioP1;P1;durP2;ratioP2;P2;SDS_P1;SDS_P2;PMS_P1;PMS_P2;Temp;Humidity;BMP_temperature;BMP_pressure;BME280_temperature;BME280_humidity;BME280_pressure;Samples;Min_cycle;Max_cycle;Signal;HPM_P1;HPM_P2
2021/08/07 00:01:03;;;;;;;2.80;2.60;;;17.10;99.90;;;;;;3593315;40;20219;-76
2021/08/07 00:03:30;;;;;;;3.95;2.10;;;17.20;99.90;;;;;;3592273;39;20670;-79
2021/08/07 00:05:58;;;;;;;3.67;2.15;;;17.10;99.90;;;;;;3593091;39;20234;-76
2021/08/07 00:08:25;;;;;;;2.97;2.67;;;17.00;99.90;;;;;;3592087;40;20240;-76
2021/08/07 00:10:52;;;;;;;2.72;2.53;;;16.90;99.90;;;;;;3590673;40;20235;-76
2021/08/07 00:13:19;;;;;;;3.15;2.63;;;17.00;99.90;;;;;;3581877;40;20239;-76
2021/08/07 00:15:46;;;;;;;2.47;2.05;;;17.20;99.90;;;;;;3588244;40;20257;-77
2021/08/07 00:18:13;;;;;;;4.80;2.53;;;17.20;99.90;;;;;;3587686;40;20246;-76
2021/08/07 00:20:40;;;;;;;3.78;2.60;;;17.20;99.90;;;;;;3588316;40;20251;-76
2021/08/07 00:23:09;;;;;;;2.17;1.98;;;17.30;99.90;;;;;;3591708;40;20760;-76
2021/08/07 00:25:36;;;;;;;2.92;2.38;;;17.10;99.90;;;;;;3590753;40;20238;-80
2021/08/07 00:28:03;;;;;;;2.50;2.28;;;17.30;99.90;;;;;;3578292;40;20235;-76
2021/08/07 00:30:31;;;;;;;2.33;2.13;;;17.20;99.90;;;;;;3588161;40;20245;-76
2021/08/07 00:32:58;;;;;;;1.98;1.88;;;17.20;99.90;;;;;;3570362;40;20242;-76
2021/08/07 00:35:25;;;;;;;4.50;2.30;;;17.20;99.90;;;;;;3584765;40;20317;-76
2021/08/07 00:37:55;;;;;;;2.85;1.98;;;17.20;99.90;;;;;;3570123;40;20276;-79
2021/08/07 00:40:24;;;;;;;1.80;1.65;;;17.30;99.90;;;;;;3578134;40;20302;-76
2021/08/07 00:42:56;;;;;;;2.45;2.25;;;17.30;99.90;;;;;;3583694;40;20259;-77
2021/08/07 00:45:29;;;;;;;2.67;1.63;;;17.50;99.90;;;;;;3579479;40;20420;-79
2021/08/07 00:47:58;;;;;;;2.30;1.90;;;17.40;99.90;;;;;;3580126;40;20553;-76
2021/08/07 00:50:26;;;;;;;2.50;2.30;;;17.50;99.90;;;;;;3579743;40;20239;-78
2021/08/07 00:52:54;;;;;;;3.55;2.25;;;17.40;99.90;;;;;;3589145;40;20262;-76
2021/08/07 00:55:28;;;;;;;3.03;2.05;;;17.40;99.90;;;;;;3578493;40;20216;-76
2021/08/07 00:57:56;;;;;;;5.28;2.63;;;17.20;99.90;;;;;;3576915;40;20230;-76
2021/08/07 01:00:26;;;;;;;2.05;1.60;;;17.20;99.90;;;;;;3578500;40;20259;-77
2021/08/07 01:03:03;;;;;;;4.28;1.98;;;17.20;99.90;;;;;;3578849;40;20247;-76
2021/08/07 01:05:39;;;;;;;3.00;2.30;;;17.20;99.90;;;;;;3578239;40;20235;-77
2021/08/07 01:08:15;;;;;;;2.60;2.40;;;17.40;99.90;;;;;;3570191;40;20250;-77
2021/08/07 01:10:51;;;;;;;2.33;2.13;;;17.50;99.90;;;;;;3574434;40;20259;-76
2021/08/07 01:13:24;;;;;;;3.65;2.05;;;17.40;99.90;;;;;;3583096;40;20365;-76
2021/08/07 01:15:59;;;;;;;3.05;1.83;;;17.30;99.90;;;;;;3578149;40;20241;-77
2021/08/07 01:18:33;;;;;;;4.38;1.73;;;17.10;99.90;;;;;;3571453;40;20250;-76
2021/08/07 01:21:01;;;;;;;1.73;1.63;;;16.90;99.90;;;;;;3575520;40;20242;-75
2021/08/07 01:23:44;;;;;;;3.20;2.15;;;16.80;99.90;;;;;;3583551;40;20283;-76
2021/08/07 01:26:22;;;;;;;3.85;2.17;;;16.70;99.90;;;;;;3580768;40;20611;-75
2021/08/07 01:29:02;;;;;;;3.08;1.98;;;16.70;99.90;;;;;;3579006;40;20239;-76
2021/08/07 01:31:30;;;;;;;1.83;1.73;;;16.70;99.90;;;;;;3579806;40;20285;-76
2021/08/07 01:34:02;;;;;;;3.03;1.92;;;16.90;99.90;;;;;;3580030;40;20243;-77
2021/08/07 01:36:40;;;;;;;3.30;1.98;;;16.90;99.90;;;;;;3579389;40;20235;-78
2021/08/07 01:39:11;;;;;;;1.98;1.70;;;16.70;99.90;;;;;;3579665;40;20250;-76
2021/08/07 01:41:40;;;;;;;4.30;1.83;;;16.70;99.90;;;;;;3586201;40;20246;-77
2021/08/07 01:44:18;;;;;;;2.45;2.25;;;16.70;99.90;;;;;;3580480;40;20246;-76
2021/08/07 01:46:55;;;;;;;1.85;1.75;;;16.60;99.90;;;;;;3568078;40;20267;-75
2021/08/07 01:49:34;;;;;;;2.75;2.50;;;16.70;99.90;;;;;;3582308;40;20238;-76
2021/08/07 01:52:09;;;;;;;1.85;1.70;;;16.80;99.90;;;;;;3579803;40;20254;-76
2021/08/07 01:54:58;;;;;;;3.58;2.30;;;16.60;99.90;;;;;;3578758;40;20279;-76
2021/08/07 01:57:28;;;;;;;4.50;2.45;;;16.60;99.90;;;;;;3579817;40;20766;-77
2021/08/07 01:59:59;;;;;;;2.40;2.20;;;16.50;99.90;;;;;;3579166;40;20258;-79
2021/08/07 02:02:28;;;;;;;1.70;1.60;;;16.50;99.90;;;;;;3552118;40;1079973;-76
2021/08/07 02:04:58;;;;;;;3.00;2.42;;;16.30;99.90;;;;;;3581175;40;20254;-77
2021/08/07 02:07:30;;;;;;;4.00;1.77;;;16.30;99.90;;;;;;3588028;40;20235;-78
2021/08/07 02:10:04;;;;;;;8.48;2.78;;;16.30;99.90;;;;;;3574717;40;20246;-76
2021/08/07 02:12:35;;;;;;;2.03;1.83;;;16.30;99.90;;;;;;3589378;40;20519;-77
2021/08/07 02:15:13;;;;;;;4.30;1.83;;;16.30;99.90;;;;;;3570490;40;20234;-76
2021/08/07 02:17:43;;;;;;;2.08;1.55;;;16.20;99.90;;;;;;3580508;40;20235;-77
2021/08/07 02:20:15;;;;;;;4.95;1.75;;;16.30;99.90;;;;;;3579895;40;20219;-76
2021/08/07 02:22:44;;;;;;;2.80;2.22;;;16.20;99.90;;;;;;3581252;40;20620;-76
2021/08/07 02:25:12;;;;;;;2.35;1.90;;;16.20;99.90;;;;;;3571133;40;20238;-77
2021/08/07 02:27:52;;;;;;;1.95;1.75;;;16.10;99.90;;;;;;3580971;40;20629;-77
2021/08/07 02:30:23;;;;;;;3.72;2.03;;;16.20;99.90;;;;;;3578318;40;20254;-76
2021/08/07 02:32:54;;;;;;;2.55;2.15;;;16.20;99.90;;;;;;3578830;40;20242;-76
2021/08/07 02:35:23;;;;;;;2.80;2.60;;;16.10;99.90;;;;;;3578178;40;20603;-77
2021/08/07 02:37:55;;;;;;;2.78;2.42;;;16.10;99.90;;;;;;3569214;40;20227;-76
2021/08/07 02:40:24;;;;;;;2.13;1.90;;;16.20;99.90;;;;;;3575748;40;20281;-77
2021/08/07 02:42:57;;;;;;;2.28;2.13;;;15.90;99.90;;;;;;3577404;40;20556;-76
2021/08/07 02:45:27;;;;;;;3.65;2.25;;;16.00;99.90;;;;;;3568450;40;20246;-76
2021/08/07 02:47:54;;;;;;;3.35;2.50;;;16.20;99.90;;;;;;3586653;40;20230;-76
2021/08/07 02:50:24;;;;;;;3.92;2.40;;;16.00;99.90;;;;;;3576417;40;20254;-76
2021/08/07 02:52:53;;;;;;;3.72;2.47;;;16.10;99.90;;;;;;3583496;40;20708;-76
2021/08/07 02:55:22;;;;;;;3.95;2.47;;;16.10;99.90;;;;;;3583050;40;20233;-75
2021/08/07 02:57:52;;;;;;;4.68;2.28;;;16.20;99.90;;;;;;3581462;40;20238;-75
2021/08/07 03:00:20;;;;;;;3.72;2.65;;;16.20;99.90;;;;;;3582141;40;20222;-76
2021/08/07 03:02:49;;;;;;;3.47;2.30;;;16.10;99.90;;;;;;3582561;40;20281;-76
2021/08/07 03:05:18;;;;;;;3.28;2.13;;;16.30;99.90;;;;;;3589883;40;20288;-76
2021/08/07 03:07:50;;;;;;;2.78;2.58;;;16.30;99.90;;;;;;3582029;40;20237;-76
2021/08/07 03:10:17;;;;;;;6.53;3.17;;;16.20;99.90;;;;;;3574588;40;20259;-76
2021/08/07 03:12:47;;;;;;;5.35;2.38;;;16.20;99.90;;;;;;3581360;40;20247;-75
2021/08/07 03:15:15;;;;;;;2.97;2.38;;;16.30;99.90;;;;;;3573842;40;20328;-75
2021/08/07 03:17:43;;;;;;;2.95;2.65;;;16.20;99.90;;;;;;3583552;40;20242;-76
2021/08/07 03:20:13;;;;;;;4.57;2.90;;;16.20;99.90;;;;;;3574909;40;20550;-76
2021/08/07 03:22:44;;;;;;;4.03;2.65;;;16.20;99.90;;;;;;3581320;40;20261;-76
2021/08/07 03:25:12;;;;;;;2.78;2.58;;;16.20;99.90;;;;;;3588474;40;20208;-77
2021/08/07 03:27:41;;;;;;;3.95;2.53;;;16.10;99.90;;;;;;3584591;40;20215;-75
2021/08/07 03:30:09;;;;;;;3.45;2.30;;;16.00;99.90;;;;;;3584276;40;20258;-76
2021/08/07 03:32:36;;;;;;;3.15;2.25;;;16.00;99.90;;;;;;3584286;40;20328;-76
2021/08/07 03:35:07;;;;;;;5.82;2.88;;;16.00;99.90;;;;;;3582891;40;20295;-76
2021/08/07 03:37:36;;;;;;;3.58;2.60;;;15.90;99.90;;;;;;3593643;40;20234;-78
2021/08/07 03:40:03;;;;;;;3.92;2.17;;;15.90;99.90;;;;;;3583500;40;20235;-76
2021/08/07 03:42:40;;;;;;;3.90;2.58;;;15.70;99.90;;;;;;3578655;40;20597;-76
2021/08/07 03:45:10;;;;;;;2.33;2.13;;;15.60;99.90;;;;;;3584014;40;20293;-76
2021/08/07 03:47:46;;;;;;;3.20;2.22;;;15.60;99.90;;;;;;3580970;40;20271;-76
2021/08/07 03:50:15;;;;;;;2.50;2.20;;;15.50;99.90;;;;;;3570071;40;20261;-75
2021/08/07 03:52:46;;;;;;;2.55;2.35;;;15.40;99.90;;;;;;3583106;40;20615;-77
2021/08/07 03:55:17;;;;;;;2.75;2.55;;;15.60;99.90;;;;;;3582848;40;20580;-75
2021/08/07 03:57:48;;;;;;;4.85;2.35;;;15.70;99.90;;;;;;3590769;40;20331;-78
2021/08/07 04:00:17;;;;;;;2.85;2.42;;;15.80;99.90;;;;;;3578519;40;20255;-76
2021/08/07 04:02:47;;;;;;;4.22;2.58;;;15.80;99.90;;;;;;3578588;40;20231;-76
2021/08/07 04:05:14;;;;;;;3.10;2.40;;;15.80;99.90;;;;;;3585487;40;20611;-76
2021/08/07 04:07:41;;;;;;;2.40;2.20;;;15.70;99.90;;;;;;3577905;40;20613;-75
2021/08/07 04:10:12;;;;;;;3.28;2.20;;;15.60;99.90;;;;;;3578260;40;20220;-74
2021/08/07 04:12:39;;;;;;;5.65;2.55;;;15.70;99.90;;;;;;3568891;40;20243;-75
2021/08/07 04:15:08;;;;;;;2.47;2.28;;;15.80;99.90;;;;;;3576839;40;20235;-75
2021/08/07 04:17:36;;;;;;;2.67;2.40;;;15.90;99.90;;;;;;3577448;40;20222;-75
2021/08/07 04:20:05;;;;;;;3.17;2.75;;;16.10;99.90;;;;;;3585674;40;20247;-75
2021/08/07 04:22:32;;;;;;;4.80;2.78;;;16.20;99.90;;;;;;3581497;40;20504;-75
2021/08/07 04:25:00;;;;;;;3.72;2.40;;;16.20;99.90;;;;;;3577868;40;20607;-75
2021/08/07 04:27:32;;;;;;;2.53;2.25;;;16.10;99.90;;;;;;3576838;40;20223;-74
2021/08/07 04:29:59;;;;;;;2.58;2.30;;;15.90;99.90;;;;;;3577876;40;20458;-75
2021/08/07 04:32:26;;;;;;;2.63;1.90;;;15.90;99.90;;;;;;3576263;40;20289;-75
2021/08/07 04:34:58;;;;;;;4.07;2.53;;;16.00;99.90;;;;;;3577821;40;20223;-75
2021/08/07 04:37:26;;;;;;;2.80;2.20;;;16.00;99.90;;;;;;3580368;40;20231;-75
2021/08/07 04:39:54;;;;;;;2.85;2.20;;;15.90;99.90;;;;;;3577209;40;20241;-75
2021/08/07 04:42:22;;;;;;;2.55;2.22;;;15.90;99.90;;;;;;3576379;40;20284;-75
2021/08/07 04:44:50;;;;;;;3.17;2.42;;;15.80;99.90;;;;;;3584685;40;20227;-75
2021/08/07 04:47:17;;;;;;;2.88;2.42;;;15.70;99.90;;;;;;3580919;40;20242;-75
2021/08/07 04:49:44;;;;;;;2.67;2.47;;;15.70;99.90;;;;;;3577821;40;20242;-76
2021/08/07 04:52:12;;;;;;;4.82;1.95;;;15.80;99.90;;;;;;3567125;40;20231;-75
2021/08/07 04:54:39;;;;;;;2.03;1.85;;;15.80;99.90;;;;;;3568949;40;20255;-75
2021/08/07 04:57:06;;;;;;;2.80;2.35;;;15.80;99.90;;;;;;3575594;40;20235;-75
2021/08/07 04:59:34;;;;;;;4.55;2.47;;;15.80;99.90;;;;;;3577065;40;20259;-75
2021/08/07 05:02:02;;;;;;;2.13;1.95;;;15.80;99.90;;;;;;3647008;22;20566;-80
2021/08/07 05:04:29;;;;;;;3.28;1.75;;;15.80;99.90;;;;;;3596056;39;20785;-79
2021/08/07 05:06:56;;;;;;;5.28;1.85;;;15.90;99.90;;;;;;3603254;39;20266;-80
2021/08/07 05:09:23;;;;;;;11.15;2.55;;;16.10;99.90;;;;;;3598099;40;20242;-81
2021/08/07 05:12:04;;;;;;;3.30;1.77;;;16.10;99.90;;;;;;3597913;39;20246;-79
2021/08/07 05:14:32;;;;;;;2.10;1.50;;;16.30;99.90;;;;;;3596937;39;20263;-78
2021/08/07 05:17:00;;;;;;;1.70;1.60;;;16.40;99.90;;;;;;3596476;39;20284;-79
2021/08/07 05:19:28;;;;;;;4.30;1.80;;;16.40;99.90;;;;;;3595424;39;20223;-78
2021/08/07 05:21:56;;;;;;;2.65;1.80;;;16.70;99.90;;;;;;3597557;39;20292;-80
2021/08/07 05:24:23;;;;;;;3.22;1.77;;;16.70;99.90;;;;;;3596573;40;20237;-78
2021/08/07 05:26:50;;;;;;;1.98;1.83;;;16.80;99.90;;;;;;3596347;40;20274;-79
2021/08/07 05:29:18;;;;;;;3.60;1.60;;;16.80;99.90;;;;;;3596249;39;20226;-79
2021/08/07 05:31:45;;;;;;;2.80;1.85;;;16.80;99.90;;;;;;3596727;40;20292;-79
2021/08/07 05:34:12;;;;;;;4.45;1.50;;;17.10;99.90;;;;;;3600207;40;20243;-80
2021/08/07 05:36:41;;;;;;;2.33;2.00;;;17.00;99.90;;;;;;3595831;39;20243;-79
2021/08/07 05:39:09;;;;;;;3.95;1.50;;;16.90;99.90;;;;;;3596397;39;20238;-79
2021/08/07 05:41:36;;;;;;;1.60;1.50;;;17.10;99.90;;;;;;3595770;40;20239;-80
2021/08/07 05:44:03;;;;;;;3.22;1.63;;;17.20;99.90;;;;;;3597603;40;20234;-79
2021/08/07 05:46:31;;;;;;;2.35;1.48;;;17.20;99.90;;;;;;3596701;40;20238;-80
2021/08/07 05:49:01;;;;;;;3.58;1.67;;;17.20;99.90;;;;;;3597138;40;20644;-80
2021/08/07 05:51:28;;;;;;;2.70;1.65;;;17.00;99.90;;;;;;3596602;40;20649;-79
2021/08/07 05:53:58;;;;;;;3.03;1.75;;;17.00;99.90;;;;;;3596016;40;20867;-80
2021/08/07 05:56:25;;;;;;;3.10;2.00;;;16.90;99.90;;;;;;3596149;40;20231;-80
2021/08/07 05:58:52;;;;;;;2.15;1.65;;;17.00;99.90;;;;;;3595817;40;20354;-80
2021/08/07 06:01:20;;;;;;;1.73;1.63;;;17.10;99.90;;;;;;3595932;40;20246;-79
2021/08/07 06:03:47;;;;;;;3.47;1.85;;;17.00;99.90;;;;;;3587376;40;20245;-81
2021/08/07 06:06:15;;;;;;;2.22;1.55;;;16.90;99.90;;;;;;3594739;40;20247;-79
2021/08/07 06:08:42;;;;;;;2.00;1.73;;;16.90;99.90;;;;;;3588285;40;20238;-79
2021/08/07 06:11:11;;;;;;;2.00;1.80;;;16.80;99.90;;;;;;3596710;40;20226;-85
2021/08/07 06:13:38;;;;;;;2.20;1.90;;;16.90;99.90;;;;;;3595163;40;20267;-83
2021/08/07 06:16:06;;;;;;;2.20;1.98;;;17.10;99.90;;;;;;3595055;40;20772;-79
2021/08/07 06:18:33;;;;;;;3.20;1.90;;;17.10;99.90;;;;;;3596730;40;20245;-79
2021/08/07 06:21:00;;;;;;;5.22;2.20;;;17.20;99.90;;;;;;3594710;39;20250;-80
2021/08/07 06:23:28;;;;;;;2.42;1.80;;;17.50;99.90;;;;;;3594686;40;20279;-79
2021/08/07 06:25:56;;;;;;;2.47;1.83;;;17.50;99.90;;;;;;3596035;40;20235;-79
2021/08/07 06:28:25;;;;;;;3.42;1.77;;;17.60;99.90;;;;;;3597361;39;20952;-79
2021/08/07 06:30:53;;;;;;;8.82;2.13;;;17.50;99.90;;;;;;3595701;40;20234;-82
2021/08/07 06:33:24;;;;;;;2.05;1.92;;;17.70;99.90;;;;;;3596860;40;20511;-80
2021/08/07 06:35:51;;;;;;;3.50;1.50;;;17.60;99.90;;;;;;3594196;40;20279;-81
2021/08/07 06:38:19;;;;;;;1.98;1.77;;;17.70;99.90;;;;;;3584927;40;20237;-79
2021/08/07 06:40:46;;;;;;;2.50;1.45;;;18.00;99.90;;;;;;3591545;40;20250;-79
2021/08/07 06:43:18;;;;;;;1.95;1.58;;;17.80;99.90;;;;;;3591696;40;20258;-80
2021/08/07 06:45:57;;;;;;;2.85;1.60;;;17.80;99.90;;;;;;3591663;40;20242;-79
2021/08/07 06:48:24;;;;;;;2.30;1.50;;;17.90;99.90;;;;;;3591380;40;20245;-80
2021/08/07 06:50:52;;;;;;;1.70;1.60;;;18.20;99.90;;;;;;3591578;40;20250;-78
2021/08/07 06:53:25;;;;;;;2.33;1.42;;;18.60;99.90;;;;;;3591502;39;20253;-79
2021/08/07 06:55:52;;;;;;;3.13;2.10;;;18.40;99.90;;;;;;3591455;39;20214;-79
2021/08/07 06:58:19;;;;;;;2.17;1.58;;;18.60;99.90;;;;;;3591634;40;20243;-80
2021/08/07 07:00:47;;;;;;;2.13;1.20;;;18.70;99.90;;;;;;3592141;39;20259;-79
2021/08/07 07:03:16;;;;;;;2.28;1.38;;;18.70;99.90;;;;;;3593091;40;20239;-79
2021/08/07 07:05:44;;;;;;;3.40;1.30;;;18.70;99.90;;;;;;3597775;40;20223;-79
2021/08/07 07:08:11;;;;;;;2.40;1.63;;;18.80;99.90;;;;;;3588669;40;20253;-80
2021/08/07 07:10:40;;;;;;;3.38;1.67;;;18.70;99.90;;;;;;3589304;40;20223;-81
2021/08/07 07:13:09;;;;;;;2.17;1.88;;;18.80;99.90;;;;;;3597961;40;20266;-80
2021/08/07 07:15:37;;;;;;;2.20;1.80;;;18.60;99.90;;;;;;3596197;40;20230;-81
2021/08/07 07:18:05;;;;;;;3.20;1.98;;;19.00;99.90;;;;;;3597080;40;20235;-80
2021/08/07 07:20:36;;;;;;;1.80;1.25;;;18.90;99.90;;;;;;3596922;40;20285;-81
2021/08/07 07:23:04;;;;;;;1.73;1.13;;;18.90;99.90;;;;;;3595318;40;20239;-79
2021/08/07 07:25:33;;;;;;;1.95;1.35;;;18.90;99.90;;;;;;3588729;40;20242;-81
2021/08/07 07:28:02;;;;;;;1.73;1.10;;;19.30;99.90;;;;;;3596350;40;20231;-82
2021/08/07 07:30:30;;;;;;;1.90;1.15;;;19.30;99.90;;;;;;3596278;40;20538;-80
2021/08/07 07:32:59;;;;;;;3.05;1.50;;;19.60;99.90;;;;;;3606679;39;20280;-80
2021/08/07 07:35:26;;;;;;;2.35;1.30;;;19.60;99.90;;;;;;3596749;40;20261;-80
2021/08/07 07:37:55;;;;;;;2.70;1.67;;;19.40;99.90;;;;;;3596508;40;20248;-84
2021/08/07 07:40:24;;;;;;;1.77;1.52;;;19.50;99.90;;;;;;3602751;39;20253;-80
2021/08/07 07:42:51;;;;;;;1.30;1.20;;;19.40;99.90;;;;;;3603025;40;20245;-78
2021/08/07 07:45:18;;;;;;;4.13;1.65;;;19.40;99.90;;;;;;3603304;40;20258;-80
2021/08/07 07:47:45;;;;;;;1.77;1.17;;;19.20;99.90;;;;;;3594781;40;20227;-79
2021/08/07 07:50:14;;;;;;;1.83;1.38;;;19.20;99.90;;;;;;3596650;40;20717;-80
2021/08/07 07:52:46;;;;;;;2.80;1.60;;;19.30;99.90;;;;;;3592868;40;20246;-80
2021/08/07 07:55:15;;;;;;;2.45;1.50;;;19.30;99.90;;;;;;3600340;40;20230;-82
2021/08/07 07:57:44;;;;;;;1.75;1.65;;;19.40;99.90;;;;;;3602453;40;20224;-77
2021/08/07 08:00:12;;;;;;;1.83;1.60;;;19.20;99.90;;;;;;3602250;40;20253;-77
2021/08/07 08:02:55;;;;;;;1.70;1.48;;;19.20;99.90;;;;;;3602334;39;20259;-78
2021/08/07 08:05:40;;;;;;;6.50;1.92;;;19.20;99.90;;;;;;3594559;40;20297;-80
2021/08/07 08:08:09;;;;;;;1.95;1.60;;;19.10;99.90;;;;;;3593276;40;20289;-78
2021/08/07 08:10:40;;;;;;;3.25;1.83;;;19.10;99.90;;;;;;3593152;40;20242;-79
2021/08/07 08:13:11;;;;;;;6.45;1.45;;;18.90;99.90;;;;;;3584064;40;20238;-79
2021/08/07 08:15:40;;;;;;;2.25;1.55;;;19.00;99.90;;;;;;3592622;40;20239;-80
2021/08/07 08:18:08;;;;;;;1.80;1.60;;;19.30;99.90;;;;;;3602075;40;20241;-80
2021/08/07 08:20:38;;;;;;;2.88;1.38;;;19.50;99.90;;;;;;3592732;40;20629;-79
2021/08/07 08:23:06;;;;;;;1.42;1.33;;;20.10;99.90;;;;;;3592417;40;20267;-80
2021/08/07 08:25:33;;;;;;;3.72;1.23;;;20.40;99.90;;;;;;3592477;40;20242;-81
2021/08/07 08:28:02;;;;;;;1.63;1.23;;;20.70;99.90;;;;;;3592231;40;20626;-80
2021/08/07 08:30:29;;;;;;;1.13;1.02;;;20.80;99.90;;;;;;3592875;40;20254;-80
2021/08/07 08:32:59;;;;;;;1.02;0.93;;;21.00;99.90;;;;;;3583906;40;20242;-79
2021/08/07 08:35:26;;;;;;;1.08;0.93;;;20.90;99.90;;;;;;3592184;40;20239;-86
2021/08/07 08:37:54;;;;;;;2.00;1.40;;;21.10;99.90;;;;;;3592445;40;20215;-80
2021/08/07 08:40:21;;;;;;;2.42;1.25;;;21.20;99.90;;;;;;3592026;40;20647;-81
2021/08/07 08:42:48;;;;;;;1.23;0.95;;;20.60;99.90;;;;;;3592863;40;20243;-80
2021/08/07 08:45:17;;;;;;;2.97;1.20;;;20.70;99.90;;;;;;3592700;40;20219;-83
2021/08/07 08:47:45;;;;;;;3.78;1.25;;;20.80;99.90;;;;;;3596908;39;20239;-81
2021/08/07 08:50:15;;;;;;;3.75;1.40;;;21.10;99.90;;;;;;3597961;40;20207;-84
2021/08/07 08:52:43;;;;;;;2.17;1.40;;;21.20;99.90;;;;;;3594830;40;20242;-81
2021/08/07 08:55:12;;;;;;;2.80;1.77;;;21.20;99.90;;;;;;3582583;40;20314;-82
2021/08/07 08:57:40;;;;;;;6.50;1.38;;;21.20;99.90;;;;;;3584967;40;20238;-82
2021/08/07 09:00:10;;;;;;;2.60;1.20;;;21.10;99.90;;;;;;3600232;40;20903;-81
2021/08/07 09:02:41;;;;;;;2.45;1.10;;;21.10;99.90;;;;;;3586191;39;20227;-81
2021/08/07 09:05:13;;;;;;;5.75;2.08;;;21.40;99.90;;;;;;3592408;39;20235;-86
2021/08/07 09:07:44;;;;;;;1.85;1.30;;;21.70;99.90;;;;;;3592262;39;20284;-82
2021/08/07 09:10:11;;;;;;;1.45;1.35;;;22.00;99.90;;;;;;3594046;40;20217;-81
2021/08/07 09:12:44;;;;;;;2.33;1.23;;;21.90;99.90;;;;;;3592798;40;20250;-81
2021/08/07 09:15:26;;;;;;;1.05;0.95;;;21.70;99.90;;;;;;3583941;40;20267;-84
2021/08/07 09:18:17;;;;;;;1.52;0.82;;;21.50;99.90;;;;;;3592451;40;20254;-82
2021/08/07 09:20:54;;;;;;;1.25;1.15;;;21.30;99.90;;;;;;3592413;40;20251;-79
2021/08/07 09:23:34;;;;;;;1.60;1.15;;;21.30;99.90;;;;;;3589683;40;20223;-79
2021/08/07 09:26:22;;;;;;;9.55;1.40;;;21.50;99.90;;;;;;3591265;40;20235;-81
2021/08/07 09:28:54;;;;;;;1.90;1.00;;;21.40;99.90;;;;;;3602600;39;20225;-79
2021/08/07 09:31:26;;;;;;;0.88;0.88;;;21.70;99.90;;;;;;3602682;40;20299;-82
2021/08/07 09:34:19;;;;;;;1.48;1.15;;;21.60;99.90;;;;;;3599395;39;20246;-80
2021/08/07 09:36:56;;;;;;;1.35;1.23;;;21.70;99.90;;;;;;3598113;39;20235;-78
2021/08/07 09:39:37;;;;;;;2.40;1.00;;;21.60;99.90;;;;;;3590564;39;20230;-80
2021/08/07 09:42:09;;;;;;;3.97;1.42;;;21.50;99.90;;;;;;3592359;40;20305;-78
2021/08/07 09:44:38;;;;;;;5.93;1.27;;;21.60;99.90;;;;;;3599400;40;20222;-79
2021/08/07 09:47:08;;;;;;;2.88;1.45;;;21.80;99.90;;;;;;3602320;40;20641;-79
2021/08/07 09:49:41;;;;;;;1.98;1.15;;;21.70;99.90;;;;;;3591609;39;20234;-79
2021/08/07 09:52:10;;;;;;;3.72;1.45;;;21.30;99.90;;;;;;3599624;40;20245;-79
2021/08/07 09:54:38;;;;;;;1.88;0.95;;;21.10;99.90;;;;;;3594450;40;20231;-79
2021/08/07 09:57:05;;;;;;;2.78;1.55;;;21.00;99.90;;;;;;3592217;40;20239;-80
2021/08/07 09:59:45;;;;;;;4.32;1.13;;;21.10;99.90;;;;;;3592175;40;20219;-79
2021/08/07 10:02:22;;;;;;;1.63;1.40;;;21.40;99.90;;;;;;3583722;40;20230;-81
2021/08/07 10:04:53;;;;;;;1.63;1.00;;;21.40;99.90;;;;;;3591761;40;20258;-78
2021/08/07 10:07:20;;;;;;;2.58;1.67;;;21.80;99.90;;;;;;3583344;40;20238;-79
2021/08/07 10:09:53;;;;;;;3.10;1.08;;;22.10;99.90;;;;;;3592240;40;20258;-78
2021/08/07 10:12:21;;;;;;;1.10;0.90;;;22.40;99.90;;;;;;3591448;40;20320;-79
2021/08/07 10:15:12;;;;;;;2.15;1.15;;;22.50;99.90;;;;;;3591959;40;20253;-80
2021/08/07 10:17:41;;;;;;;5.22;1.27;;;22.40;99.90;;;;;;3593105;40;20223;-80
2021/08/07 10:20:13;;;;;;;1.38;1.17;;;22.50;99.90;;;;;;3592101;40;20329;-82
2021/08/07 10:22:41;;;;;;;4.03;1.55;;;22.60;99.90;;;;;;3591949;40;20246;-79
2021/08/07 10:25:09;;;;;;;3.47;1.42;;;23.20;99.90;;;;;;3591674;40;20250;-78
2021/08/07 10:27:39;;;;;;;2.80;1.27;;;23.60;99.90;;;;;;3591770;40;20261;-81
2021/08/07 10:30:11;;;;;;;3.08;1.50;;;23.20;99.90;;;;;;3591516;40;20215;-79
2021/08/07 10:32:41;;;;;;;2.28;1.20;;;23.00;99.90;;;;;;3583868;40;20236;-81
2021/08/07 10:35:12;;;;;;;4.60;1.25;;;23.10;99.90;;;;;;3590549;40;20232;-80
2021/08/07 10:37:41;;;;;;;2.90;0.77;;;23.10;99.90;;;;;;3591661;40;20242;-80
2021/08/07 10:40:10;;;;;;;0.93;0.63;;;23.50;99.90;;;;;;3590918;40;20255;-80
2021/08/07 10:42:38;;;;;;;1.67;1.55;;;23.50;99.90;;;;;;3599105;40;20291;-83
2021/08/07 10:45:08;;;;;;;0.80;0.80;;;23.30;99.90;;;;;;3603617;39;20222;-80
2021/08/07 10:47:41;;;;;;;1.95;0.73;;;23.00;99.90;;;;;;3603443;40;20214;-80
2021/08/07 10:50:34;;;;;;;1.92;0.90;;;23.20;99.90;;;;;;3602883;40;20656;-80
2021/08/07 10:53:36;;;;;;;3.53;0.60;;;23.40;99.90;;;;;;3595088;40;20229;-78
2021/08/07 10:56:03;;;;;;;4.20;1.00;;;23.70;99.90;;;;;;3601717;40;20375;-79
2021/08/07 10:58:35;;;;;;;2.70;0.95;;;23.50;99.90;;;;;;3603551;40;20562;-78
2021/08/07 11:01:28;;;;;;;2.47;1.55;;;23.40;99.90;;;;;;3601229;40;20238;-79
2021/08/07 11:04:11;;;;;;;1.60;1.15;;;23.20;99.90;;;;;;3634714;22;20238;-78
2021/08/07 11:06:52;;;;;;;2.05;1.40;;;23.40;99.90;;;;;;3601361;39;20718;-77
2021/08/07 11:09:22;;;;;;;1.92;0.52;;;23.60;99.90;;;;;;3609194;40;20869;-79
2021/08/07 11:12:10;;;;;;;2.05;1.20;;;23.70;99.90;;;;;;3602891;39;20226;-78
2021/08/07 11:14:47;;;;;;;3.00;1.20;;;23.80;99.90;;;;;;3591067;39;20227;-77
2021/08/07 11:17:34;;;;;;;1.35;0.77;;;24.20;99.90;;;;;;3590543;40;20593;-77
2021/08/07 11:20:06;;;;;;;3.47;1.45;;;24.10;99.90;;;;;;3582932;40;20644;-77
2021/08/07 11:23:09;;;;;;;4.45;1.20;;;24.10;99.90;;;;;;3588058;40;20247;-78
2021/08/07 11:26:07;;;;;;;3.03;1.02;;;24.10;99.90;;;;;;3589945;40;20242;-80
2021/08/07 11:29:01;;;;;;;2.58;0.73;;;24.30;99.90;;;;;;3583413;40;20239;-77
2021/08/07 11:31:28;;;;;;;3.97;1.08;;;24.30;99.90;;;;;;3595493;40;20223;-80
2021/08/07 11:34:25;;;;;;;1.15;0.65;;;24.20;99.90;;;;;;3590544;40;20292;-77
2021/08/07 11:37:12;;;;;;;0.60;0.60;;;24.00;99.90;;;;;;3589243;40;20240;-76
2021/08/07 11:40:05;;;;;;;0.60;0.60;;;24.20;99.90;;;;;;3588679;39;20247;-79
2021/08/07 11:42:37;;;;;;;4.03;1.23;;;24.30;99.90;;;;;;3591233;40;20666;-76
2021/08/07 11:45:06;;;;;;;1.05;0.98;;;24.20;99.90;;;;;;3591851;40;20219;-77
2021/08/07 11:47:33;;;;;;;3.22;0.90;;;24.20;99.90;;;;;;3586694;40;20228;-78
2021/08/07 11:50:06;;;;;;;3.78;1.35;;;24.30;99.90;;;;;;3584977;40;20227;-76
2021/08/07 11:52:34;;;;;;;1.45;1.00;;;24.40;99.90;;;;;;3587448;39;20306;-77
2021/08/07 11:55:03;;;;;;;3.28;1.00;;;24.50;99.90;;;;;;3591440;40;20234;-77
2021/08/07 11:57:31;;;;;;;1.38;0.95;;;24.50;99.90;;;;;;3593420;40;20242;-77
2021/08/07 12:00:25;;;;;;;3.13;1.02;;;24.20;99.90;;;;;;3601837;39;20230;-78
2021/08/07 12:03:00;;;;;;;1.40;0.85;;;24.10;99.90;;;;;;3587448;39;20264;-80
2021/08/07 12:05:27;;;;;;;2.55;0.82;;;24.00;99.90;;;;;;3592034;39;20215;-77
2021/08/07 12:08:02;;;;;;;1.55;0.80;;;24.00;99.90;;;;;;3599141;39;20226;-77
2021/08/07 12:10:32;;;;;;;1.80;0.80;;;23.60;99.90;;;;;;3593154;40;20713;-77
2021/08/07 12:13:02;;;;;;;2.60;0.90;;;23.60;99.90;;;;;;3592881;40;20226;-78
2021/08/07 12:15:31;;;;;;;2.85;1.33;;;23.50;99.90;;;;;;3593056;40;20277;-87
2021/08/07 12:18:00;;;;;;;1.58;0.98;;;23.20;99.90;;;;;;3593107;40;20235;-78
2021/08/07 12:20:29;;;;;;;2.95;1.08;;;23.30;99.90;;;;;;3592663;40;20268;-77
2021/08/07 12:22:59;;;;;;;2.15;0.95;;;23.20;99.90;;;;;;3592875;40;20242;-80
2021/08/07 12:25:31;;;;;;;7.25;1.42;;;23.10;99.90;;;;;;3592019;40;20231;-77
2021/08/07 12:28:11;;;;;;;2.75;1.48;;;22.50;99.90;;;;;;3589468;40;20242;-76
2021/08/07 12:30:53;;;;;;;2.92;1.13;;;21.90;99.90;;;;;;3592022;40;20259;-78
2021/08/07 12:33:23;;;;;;;5.00;1.30;;;21.70;99.90;;;;;;3584947;40;20235;-78
2021/08/07 12:35:51;;;;;;;5.10;1.33;;;21.60;99.90;;;;;;3588614;39;20886;-77
2021/08/07 12:38:19;;;;;;;6.22;1.55;;;21.70;99.90;;;;;;3586954;39;20715;-78
2021/08/07 12:40:49;;;;;;;5.20;1.38;;;22.10;99.90;;;;;;3586049;40;20232;-78
2021/08/07 12:43:16;;;;;;;4.65;1.42;;;22.30;99.90;;;;;;3586657;40;20251;-83
2021/08/07 12:45:45;;;;;;;1.77;1.20;;;22.60;99.90;;;;;;3591808;39;20990;-78
2021/08/07 12:48:28;;;;;;;3.13;1.58;;;23.10;99.90;;;;;;3590026;40;20235;-77
2021/08/07 12:51:34;;;;;;;3.50;1.67;;;23.40;99.90;;;;;;3592422;40;20243;-83
2021/08/07 13:10:31;;;;;;;2.65;1.13;;;24.80;99.90;;;;;;3611774;39;20261;-80
2021/08/07 13:13:13;;;;;;;2.55;1.15;;;25.30;99.90;;;;;;3608186;39;20269;-78
2021/08/07 13:16:00;;;;;;;4.60;1.40;;;25.00;99.90;;;;;;3599087;39;20242;-79
2021/08/07 13:19:57;;;;;;;2.88;1.55;;;24.40;99.90;;;;;;3602662;39;20225;-82
2021/08/07 13:22:42;;;;;;;2.40;1.10;;;24.10;99.90;;;;;;3588431;39;20239;-79
2021/08/07 13:25:41;;;;;;;;;;;;;;;;;;;;;
2021/08/07 13:33:02;;;;;;;3.13;1.90;;;23.90;99.90;;;;;;3574722;40;20234;-81